sensor_id;sensor_type;location;lat;lon;timestamp;P1;durP1;ratioP1;P2;durP2;ratioP2
59974;SDS011;62136;-35.664;-63.766;2023-05-02T00:01:19;2.00;;;1.70;;
59974;SDS011;62136;-35.664;-63.766;2023-05-02T00:03:46;2.65;;;2.00;;
59974;SDS011;62136;-35.664;-63.766;2023-05-02T00:06:14;3.72;;;2.28;;
59974;SDS011;62136;-35.664;-63.766;2023-05-02T00:08:41;2.28;;;1.77;;
59974;SDS011;62136;-35.664;-63.766;2023-05-02T00:11:08;2.38;;;1.75;;
59974;SDS011;62136;-35.664;-63.766;2023-05-02T00:13:35;3.10;;;1.90;;
59974;SDS011;62136;-35.664;-63.766;2023-05-02T00:16:02;5.25;;;2.05;;
59974;SDS011;62136;-35.664;-63.766;2023-05-02T00:18:29;4.60;;;1.88;;
59974;SDS011;62136;-35.664;-63.766;2023-05-02T00:20:57;3.67;;;1.95;;
59974;SDS011;62136;-35.664;-63.766;2023-05-02T00:23:24;3.35;;;2.00;;
59974;SDS011;62136;-35.664;-63.766;2023-05-02T00:25:51;5.65;;;2.25;;
59974;SDS011;62136;-35.664;-63.766;2023-05-02T00:28:18;3.00;;;2.30;;
59974;SDS011;62136;-35.664;-63.766;2023-05-02T00:30:45;3.13;;;2.22;;
59974;SDS011;62136;-35.664;-63.766;2023-05-02T00:33:13;4.85;;;2.70;;
59974;SDS011;62136;-35.664;-63.766;2023-05-02T00:35:40;3.92;;;2.17;;
59974;SDS011;62136;-35.664;-63.766;2023-05-02T00:38:07;4.05;;;2.45;;
59974;SDS011;62136;-35.664;-63.766;2023-05-02T00:40:47;3.92;;;2.63;;
59974;SDS011;62136;-35.664;-63.766;2023-05-02T00:43:18;2.92;;;2.30;;
59974;SDS011;62136;-35.664;-63.766;2023-05-02T00:45:45;3.35;;;2.22;;
59974;SDS011;62136;-35.664;-63.766;2023-05-02T00:48:13;3.15;;;2.40;;
59974;SDS011;62136;-35.664;-63.766;2023-05-02T00:50:42;3.75;;;2.25;;
59974;SDS011;62136;-35.664;-63.766;2023-05-02T00:53:09;4.88;;;2.78;;
59974;SDS011;62136;-35.664;-63.766;2023-05-02T00:55:37;3.67;;;2.58;;
59974;SDS011;62136;-35.664;-63.766;2023-05-02T00:58:05;4.03;;;2.38;;
59974;SDS011;62136;-35.664;-63.766;2023-05-02T01:03:40;2.88;;;2.35;;
59974;SDS011;62136;-35.664;-63.766;2023-05-02T01:11:43;3.95;;;2.63;;
59974;SDS011;62136;-35.664;-63.766;2023-05-02T01:14:29;4.50;;;2.95;;
59974;SDS011;62136;-35.664;-63.766;2023-05-02T01:17:04;3.97;;;2.85;;
59974;SDS011;62136;-35.664;-63.766;2023-05-02T01:19:37;4.65;;;3.03;;
59974;SDS011;62136;-35.664;-63.766;2023-05-02T01:22:07;3.97;;;2.90;;
59974;SDS011;62136;-35.664;-63.766;2023-05-02T01:30:42;4.28;;;2.83;;
59974;SDS011;62136;-35.664;-63.766;2023-05-02T01:33:13;5.78;;;3.25;;
59974;SDS011;62136;-35.664;-63.766;2023-05-02T01:35:48;4.87;;;3.13;;
59974;SDS011;62136;-35.664;-63.766;2023-05-02T01:38:17;5.43;;;3.25;;
59974;SDS011;62136;-35.664;-63.766;2023-05-02T01:40:45;4.38;;;3.05;;
59974;SDS011;62136;-35.664;-63.766;2023-05-02T01:43:15;4.75;;;3.50;;
59974;SDS011;62136;-35.664;-63.766;2023-05-02T01:45:46;4.57;;;3.30;;
59974;SDS011;62136;-35.664;-63.766;2023-05-02T01:50:40;6.28;;;3.38;;
59974;SDS011;62136;-35.664;-63.766;2023-05-02T01:53:10;5.38;;;3.20;;
59974;SDS011;62136;-35.664;-63.766;2023-05-02T01:55:39;5.22;;;3.45;;
59974;SDS011;62136;-35.664;-63.766;2023-05-02T01:58:09;6.07;;;3.50;;
59974;SDS011;62136;-35.664;-63.766;2023-05-02T02:00:37;4.90;;;3.40;;
59974;SDS011;62136;-35.664;-63.766;2023-05-02T02:03:06;6.68;;;3.92;;
59974;SDS011;62136;-35.664;-63.766;2023-05-02T02:05:38;3.47;;;2.90;;
59974;SDS011;62136;-35.664;-63.766;2023-05-02T02:08:06;5.55;;;3.75;;
59974;SDS011;62136;-35.664;-63.766;2023-05-02T02:10:39;6.65;;;3.90;;
59974;SDS011;62136;-35.664;-63.766;2023-05-02T02:13:17;5.32;;;3.53;;
59974;SDS011;62136;-35.664;-63.766;2023-05-02T02:16:00;6.30;;;3.83;;
59974;SDS011;62136;-35.664;-63.766;2023-05-02T02:18:34;7.32;;;4.25;;
59974;SDS011;62136;-35.664;-63.766;2023-05-02T02:21:03;5.63;;;3.97;;
59974;SDS011;62136;-35.664;-63.766;2023-05-02T02:23:34;6.72;;;3.78;;
59974;SDS011;62136;-35.664;-63.766;2023-05-02T02:26:07;6.80;;;3.80;;
59974;SDS011;62136;-35.664;-63.766;2023-05-02T02:28:36;5.75;;;3.80;;
59974;SDS011;62136;-35.664;-63.766;2023-05-02T02:31:03;7.10;;;3.60;;
59974;SDS011;62136;-35.664;-63.766;2023-05-02T02:33:33;5.80;;;4.18;;
59974;SDS011;62136;-35.664;-63.766;2023-05-02T02:36:06;6.15;;;3.95;;
59974;SDS011;62136;-35.664;-63.766;2023-05-02T02:39:01;5.78;;;3.85;;
59974;SDS011;62136;-35.664;-63.766;2023-05-02T02:41:38;7.18;;;4.20;;
59974;SDS011;62136;-35.664;-63.766;2023-05-02T02:44:20;5.10;;;4.03;;
59974;SDS011;62136;-35.664;-63.766;2023-05-02T02:50:11;7.07;;;4.50;;
59974;SDS011;62136;-35.664;-63.766;2023-05-02T02:53:06;6.22;;;4.18;;
59974;SDS011;62136;-35.664;-63.766;2023-05-02T03:00:42;7.00;;;4.22;;
59974;SDS011;62136;-35.664;-63.766;2023-05-02T03:03:13;6.97;;;4.32;;
59974;SDS011;62136;-35.664;-63.766;2023-05-02T03:05:43;7.75;;;3.85;;
59974;SDS011;62136;-35.664;-63.766;2023-05-02T03:08:11;6.93;;;3.97;;
59974;SDS011;62136;-35.664;-63.766;2023-05-02T03:10:38;6.53;;;4.25;;
59974;SDS011;62136;-35.664;-63.766;2023-05-02T03:13:05;6.93;;;4.60;;
59974;SDS011;62136;-35.664;-63.766;2023-05-02T03:18:23;6.82;;;4.05;;
59974;SDS011;62136;-35.664;-63.766;2023-05-02T03:20:50;7.53;;;4.20;;
59974;SDS011;62136;-35.664;-63.766;2023-05-02T03:23:17;8.88;;;4.65;;
59974;SDS011;62136;-35.664;-63.766;2023-05-02T03:25:44;7.18;;;3.95;;
59974;SDS011;62136;-35.664;-63.766;2023-05-02T03:28:11;7.15;;;3.95;;
59974;SDS011;62136;-35.664;-63.766;2023-05-02T03:30:38;6.68;;;4.60;;
59974;SDS011;62136;-35.664;-63.766;2023-05-02T03:33:06;7.05;;;4.43;;
59974;SDS011;62136;-35.664;-63.766;2023-05-02T03:35:33;7.05;;;3.90;;
59974;SDS011;62136;-35.664;-63.766;2023-05-02T03:38:00;7.38;;;4.13;;
59974;SDS011;62136;-35.664;-63.766;2023-05-02T03:40:27;6.20;;;3.95;;
59974;SDS011;62136;-35.664;-63.766;2023-05-02T03:42:54;6.15;;;4.00;;
59974;SDS011;62136;-35.664;-63.766;2023-05-02T03:45:21;6.43;;;4.22;;
59974;SDS011;62136;-35.664;-63.766;2023-05-02T03:47:48;5.18;;;3.67;;
59974;SDS011;62136;-35.664;-63.766;2023-05-02T03:50:15;6.40;;;3.72;;
59974;SDS011;62136;-35.664;-63.766;2023-05-02T03:52:42;5.05;;;3.75;;
59974;SDS011;62136;-35.664;-63.766;2023-05-02T03:55:09;7.80;;;4.25;;
59974;SDS011;62136;-35.664;-63.766;2023-05-02T03:57:36;5.30;;;3.95;;
59974;SDS011;62136;-35.664;-63.766;2023-05-02T04:00:03;4.95;;;3.75;;
59974;SDS011;62136;-35.664;-63.766;2023-05-02T04:02:31;5.25;;;4.15;;
59974;SDS011;62136;-35.664;-63.766;2023-05-02T04:04:58;7.03;;;4.40;;
59974;SDS011;62136;-35.664;-63.766;2023-05-02T04:07:25;5.45;;;3.83;;
59974;SDS011;62136;-35.664;-63.766;2023-05-02T04:09:53;5.18;;;3.50;;
59974;SDS011;62136;-35.664;-63.766;2023-05-02T04:12:20;10.40;;;4.05;;
59974;SDS011;62136;-35.664;-63.766;2023-05-02T04:14:47;7.03;;;3.55;;
59974;SDS011;62136;-35.664;-63.766;2023-05-02T04:17:14;5.43;;;3.65;;
59974;SDS011;62136;-35.664;-63.766;2023-05-02T04:19:41;5.78;;;3.95;;
59974;SDS011;62136;-35.664;-63.766;2023-05-02T04:22:08;5.68;;;3.60;;
59974;SDS011;62136;-35.664;-63.766;2023-05-02T04:24:35;4.10;;;3.28;;
59974;SDS011;62136;-35.664;-63.766;2023-05-02T04:27:02;5.63;;;3.70;;
59974;SDS011;62136;-35.664;-63.766;2023-05-02T04:29:29;5.40;;;3.42;;
59974;SDS011;62136;-35.664;-63.766;2023-05-02T04:31:56;6.30;;;3.33;;
59974;SDS011;62136;-35.664;-63.766;2023-05-02T04:34:23;4.32;;;3.70;;
59974;SDS011;62136;-35.664;-63.766;2023-05-02T04:36:52;5.05;;;3.70;;
59974;SDS011;62136;-35.664;-63.766;2023-05-02T04:39:19;5.70;;;3.63;;
59974;SDS011;62136;-35.664;-63.766;2023-05-02T04:41:46;4.97;;;3.47;;
59974;SDS011;62136;-35.664;-63.766;2023-05-02T04:44:14;4.88;;;3.40;;
59974;SDS011;62136;-35.664;-63.766;2023-05-02T04:46:41;6.18;;;3.80;;
59974;SDS011;62136;-35.664;-63.766;2023-05-02T04:49:09;5.03;;;3.28;;
59974;SDS011;62136;-35.664;-63.766;2023-05-02T04:51:36;4.18;;;3.50;;
59974;SDS011;62136;-35.664;-63.766;2023-05-02T04:54:03;5.32;;;3.53;;
59974;SDS011;62136;-35.664;-63.766;2023-05-02T04:56:30;5.32;;;3.53;;
59974;SDS011;62136;-35.664;-63.766;2023-05-02T04:58:57;4.65;;;3.33;;
59974;SDS011;62136;-35.664;-63.766;2023-05-02T05:01:24;4.20;;;3.30;;
59974;SDS011;62136;-35.664;-63.766;2023-05-02T05:03:54;4.30;;;3.38;;
59974;SDS011;62136;-35.664;-63.766;2023-05-02T05:06:21;4.10;;;2.95;;
59974;SDS011;62136;-35.664;-63.766;2023-05-02T05:08:48;4.88;;;3.30;;
59974;SDS011;62136;-35.664;-63.766;2023-05-02T05:11:15;3.20;;;2.85;;
59974;SDS011;62136;-35.664;-63.766;2023-05-02T05:13:42;5.90;;;3.40;;
59974;SDS011;62136;-35.664;-63.766;2023-05-02T05:16:09;4.15;;;3.08;;
59974;SDS011;62136;-35.664;-63.766;2023-05-02T05:18:36;5.00;;;3.08;;
59974;SDS011;62136;-35.664;-63.766;2023-05-02T05:21:07;4.00;;;3.20;;
59974;SDS011;62136;-35.664;-63.766;2023-05-02T05:23:37;3.72;;;2.95;;
59974;SDS011;62136;-35.664;-63.766;2023-05-02T05:26:10;5.63;;;3.40;;
59974;SDS011;62136;-35.664;-63.766;2023-05-02T05:28:41;3.50;;;3.20;;
59974;SDS011;62136;-35.664;-63.766;2023-05-02T05:31:09;6.30;;;3.90;;
59974;SDS011;62136;-35.664;-63.766;2023-05-02T05:33:38;6.00;;;3.22;;
59974;SDS011;62136;-35.664;-63.766;2023-05-02T05:36:09;5.13;;;3.17;;
59974;SDS011;62136;-35.664;-63.766;2023-05-02T05:38:39;5.25;;;3.45;;
59974;SDS011;62136;-35.664;-63.766;2023-05-02T05:41:06;5.30;;;3.05;;
59974;SDS011;62136;-35.664;-63.766;2023-05-02T05:43:33;6.15;;;3.05;;
59974;SDS011;62136;-35.664;-63.766;2023-05-02T05:46:00;5.10;;;2.92;;
59974;SDS011;62136;-35.664;-63.766;2023-05-02T05:48:27;3.92;;;2.80;;
59974;SDS011;62136;-35.664;-63.766;2023-05-02T05:50:54;3.45;;;2.65;;
59974;SDS011;62136;-35.664;-63.766;2023-05-02T05:53:21;3.35;;;3.03;;
59974;SDS011;62136;-35.664;-63.766;2023-05-02T05:55:48;3.70;;;2.90;;
59974;SDS011;62136;-35.664;-63.766;2023-05-02T05:58:15;4.47;;;3.10;;
59974;SDS011;62136;-35.664;-63.766;2023-05-02T06:00:42;3.78;;;2.92;;
59974;SDS011;62136;-35.664;-63.766;2023-05-02T06:03:10;4.35;;;2.63;;
59974;SDS011;62136;-35.664;-63.766;2023-05-02T06:05:37;3.55;;;2.72;;
59974;SDS011;62136;-35.664;-63.766;2023-05-02T06:08:04;4.68;;;2.95;;
59974;SDS011;62136;-35.664;-63.766;2023-05-02T06:10:31;4.03;;;3.03;;
59974;SDS011;62136;-35.664;-63.766;2023-05-02T06:12:58;6.50;;;2.88;;
59974;SDS011;62136;-35.664;-63.766;2023-05-02T06:15:25;3.83;;;2.85;;
59974;SDS011;62136;-35.664;-63.766;2023-05-02T06:17:52;5.00;;;2.83;;
59974;SDS011;62136;-35.664;-63.766;2023-05-02T06:20:19;5.57;;;2.95;;
59974;SDS011;62136;-35.664;-63.766;2023-05-02T06:22:46;4.82;;;3.10;;
59974;SDS011;62136;-35.664;-63.766;2023-05-02T06:25:13;4.40;;;2.47;;
59974;SDS011;62136;-35.664;-63.766;2023-05-02T06:27:40;3.88;;;2.90;;
59974;SDS011;62136;-35.664;-63.766;2023-05-02T06:30:07;4.57;;;2.67;;
59974;SDS011;62136;-35.664;-63.766;2023-05-02T06:32:34;3.33;;;2.50;;
59974;SDS011;62136;-35.664;-63.766;2023-05-02T06:35:01;3.47;;;2.63;;
59974;SDS011;62136;-35.664;-63.766;2023-05-02T06:37:32;3.30;;;3.03;;
59974;SDS011;62136;-35.664;-63.766;2023-05-02T06:40:02;3.67;;;2.70;;
59974;SDS011;62136;-35.664;-63.766;2023-05-02T06:42:30;4.35;;;2.75;;
59974;SDS011;62136;-35.664;-63.766;2023-05-02T06:44:57;3.65;;;2.42;;
59974;SDS011;62136;-35.664;-63.766;2023-05-02T06:47:24;5.22;;;2.35;;
59974;SDS011;62136;-35.664;-63.766;2023-05-02T06:49:51;4.03;;;2.47;;
59974;SDS011;62136;-35.664;-63.766;2023-05-02T06:52:18;3.83;;;2.75;;
59974;SDS011;62136;-35.664;-63.766;2023-05-02T06:54:45;5.43;;;2.60;;
59974;SDS011;62136;-35.664;-63.766;2023-05-02T06:57:12;2.30;;;2.08;;
59974;SDS011;62136;-35.664;-63.766;2023-05-02T06:59:40;3.00;;;2.38;;
59974;SDS011;62136;-35.664;-63.766;2023-05-02T07:02:07;2.90;;;2.30;;
59974;SDS011;62136;-35.664;-63.766;2023-05-02T07:04:34;3.90;;;2.58;;
59974;SDS011;62136;-35.664;-63.766;2023-05-02T07:07:01;2.80;;;2.38;;
59974;SDS011;62136;-35.664;-63.766;2023-05-02T07:09:28;4.25;;;2.65;;
59974;SDS011;62136;-35.664;-63.766;2023-05-02T07:11:55;2.75;;;2.15;;
59974;SDS011;62136;-35.664;-63.766;2023-05-02T07:14:22;3.22;;;2.45;;
59974;SDS011;62136;-35.664;-63.766;2023-05-02T07:16:49;3.67;;;2.42;;
59974;SDS011;62136;-35.664;-63.766;2023-05-02T07:19:16;3.53;;;2.47;;
59974;SDS011;62136;-35.664;-63.766;2023-05-02T07:21:43;2.72;;;2.08;;
59974;SDS011;62136;-35.664;-63.766;2023-05-02T07:24:10;2.40;;;2.20;;
59974;SDS011;62136;-35.664;-63.766;2023-05-02T07:26:37;3.65;;;2.20;;
59974;SDS011;62136;-35.664;-63.766;2023-05-02T07:29:05;2.88;;;2.20;;
59974;SDS011;62136;-35.664;-63.766;2023-05-02T07:31:33;4.22;;;2.20;;
59974;SDS011;62136;-35.664;-63.766;2023-05-02T07:34:00;4.07;;;2.50;;
59974;SDS011;62136;-35.664;-63.766;2023-05-02T07:36:27;4.10;;;2.05;;
59974;SDS011;62136;-35.664;-63.766;2023-05-02T07:38:54;2.72;;;1.92;;
59974;SDS011;62136;-35.664;-63.766;2023-05-02T07:41:21;2.53;;;2.33;;
59974;SDS011;62136;-35.664;-63.766;2023-05-02T07:43:48;2.67;;;1.80;;
59974;SDS011;62136;-35.664;-63.766;2023-05-02T07:46:15;4.10;;;2.28;;
59974;SDS011;62136;-35.664;-63.766;2023-05-02T07:48:43;2.40;;;1.98;;
59974;SDS011;62136;-35.664;-63.766;2023-05-02T07:51:10;3.10;;;1.98;;
59974;SDS011;62136;-35.664;-63.766;2023-05-02T07:53:37;3.30;;;2.10;;
59974;SDS011;62136;-35.664;-63.766;2023-05-02T07:56:05;2.92;;;2.13;;
59974;SDS011;62136;-35.664;-63.766;2023-05-02T07:58:36;2.95;;;2.30;;
59974;SDS011;62136;-35.664;-63.766;2023-05-02T08:01:03;4.22;;;1.92;;
59974;SDS011;62136;-35.664;-63.766;2023-05-02T08:03:30;2.30;;;1.92;;
59974;SDS011;62136;-35.664;-63.766;2023-05-02T08:05:57;2.38;;;2.05;;
59974;SDS011;62136;-35.664;-63.766;2023-05-02T08:08:26;2.47;;;1.90;;
59974;SDS011;62136;-35.664;-63.766;2023-05-02T08:10:53;2.53;;;1.90;;
59974;SDS011;62136;-35.664;-63.766;2023-05-02T08:13:20;3.17;;;1.83;;
59974;SDS011;62136;-35.664;-63.766;2023-05-02T08:15:47;3.33;;;2.20;;
59974;SDS011;62136;-35.664;-63.766;2023-05-02T08:18:14;2.50;;;2.08;;
59974;SDS011;62136;-35.664;-63.766;2023-05-02T08:20:45;2.47;;;1.90;;
59974;SDS011;62136;-35.664;-63.766;2023-05-02T08:23:13;2.10;;;1.70;;
59974;SDS011;62136;-35.664;-63.766;2023-05-02T08:25:40;3.03;;;1.98;;
59974;SDS011;62136;-35.664;-63.766;2023-05-02T08:28:07;2.47;;;1.95;;
59974;SDS011;62136;-35.664;-63.766;2023-05-02T08:30:34;3.03;;;2.00;;
59974;SDS011;62136;-35.664;-63.766;2023-05-02T08:33:01;2.03;;;1.75;;
59974;SDS011;62136;-35.664;-63.766;2023-05-02T08:35:28;2.67;;;1.90;;
59974;SDS011;62136;-35.664;-63.766;2023-05-02T08:37:55;2.38;;;1.75;;
59974;SDS011;62136;-35.664;-63.766;2023-05-02T08:40:22;2.42;;;1.77;;
59974;SDS011;62136;-35.664;-63.766;2023-05-02T08:42:50;2.28;;;2.00;;
59974;SDS011;62136;-35.664;-63.766;2023-05-02T08:45:18;1.85;;;1.70;;
59974;SDS011;62136;-35.664;-63.766;2023-05-02T08:47:47;2.45;;;2.08;;
59974;SDS011;62136;-35.664;-63.766;2023-05-02T08:50:15;2.33;;;1.80;;
59974;SDS011;62136;-35.664;-63.766;2023-05-02T08:52:43;2.25;;;1.83;;
59974;SDS011;62136;-35.664;-63.766;2023-05-02T08:55:11;2.30;;;1.65;;
59974;SDS011;62136;-35.664;-63.766;2023-05-02T08:57:39;2.45;;;1.77;;
59974;SDS011;62136;-35.664;-63.766;2023-05-02T09:00:08;2.22;;;1.70;;
59974;SDS011;62136;-35.664;-63.766;2023-05-02T09:05:24;2.50;;;1.50;;
59974;SDS011;62136;-35.664;-63.766;2023-05-02T09:07:51;3.03;;;1.80;;
59974;SDS011;62136;-35.664;-63.766;2023-05-02T09:10:18;1.42;;;1.33;;
59974;SDS011;62136;-35.664;-63.766;2023-05-02T09:12:50;2.15;;;1.50;;
59974;SDS011;62136;-35.664;-63.766;2023-05-02T09:15:18;2.17;;;1.48;;
59974;SDS011;62136;-35.664;-63.766;2023-05-02T09:17:46;2.03;;;1.60;;
59974;SDS011;62136;-35.664;-63.766;2023-05-02T09:20:14;1.70;;;1.30;;
59974;SDS011;62136;-35.664;-63.766;2023-05-02T09:22:48;1.90;;;1.40;;
59974;SDS011;62136;-35.664;-63.766;2023-05-02T09:25:18;1.50;;;1.40;;
59974;SDS011;62136;-35.664;-63.766;2023-05-02T09:27:52;3.05;;;1.35;;
59974;SDS011;62136;-35.664;-63.766;2023-05-02T09:30:23;1.88;;;1.50;;
59974;SDS011;62136;-35.664;-63.766;2023-05-02T09:32:51;2.80;;;1.95;;
59974;SDS011;62136;-35.664;-63.766;2023-05-02T09:35:20;2.80;;;1.50;;
59974;SDS011;62136;-35.664;-63.766;2023-05-02T09:37:54;1.70;;;1.42;;
59974;SDS011;62136;-35.664;-63.766;2023-05-02T09:40:22;2.20;;;2.00;;
59974;SDS011;62136;-35.664;-63.766;2023-05-02T09:42:50;1.70;;;1.42;;
59974;SDS011;62136;-35.664;-63.766;2023-05-02T09:45:21;3.60;;;1.80;;
59974;SDS011;62136;-35.664;-63.766;2023-05-02T09:47:50;2.45;;;1.30;;
59974;SDS011;62136;-35.664;-63.766;2023-05-02T09:50:36;1.60;;;1.40;;
59974;SDS011;62136;-35.664;-63.766;2023-05-02T09:53:04;2.67;;;1.35;;
59974;SDS011;62136;-35.664;-63.766;2023-05-02T09:55:34;3.00;;;1.60;;
59974;SDS011;62136;-35.664;-63.766;2023-05-02T09:58:01;2.70;;;1.40;;
59974;SDS011;62136;-35.664;-63.766;2023-05-02T10:00:38;1.40;;;1.30;;
59974;SDS011;62136;-35.664;-63.766;2023-05-02T10:03:07;2.10;;;1.58;;
59974;SDS011;62136;-35.664;-63.766;2023-05-02T10:05:37;2.03;;;1.27;;
59974;SDS011;62136;-35.664;-63.766;2023-05-02T10:08:05;2.45;;;1.45;;
59974;SDS011;62136;-35.664;-63.766;2023-05-02T10:10:38;2.03;;;1.60;;
59974;SDS011;62136;-35.664;-63.766;2023-05-02T10:13:07;1.50;;;1.30;;
59974;SDS011;62136;-35.664;-63.766;2023-05-02T10:15:36;1.92;;;1.50;;
59974;SDS011;62136;-35.664;-63.766;2023-05-02T10:18:08;1.75;;;1.27;;
59974;SDS011;62136;-35.664;-63.766;2023-05-02T10:20:43;1.52;;;1.40;;
59974;SDS011;62136;-35.664;-63.766;2023-05-02T10:23:26;3.58;;;1.40;;
59974;SDS011;62136;-35.664;-63.766;2023-05-02T10:25:56;1.60;;;1.50;;
59974;SDS011;62136;-35.664;-63.766;2023-05-02T10:28:24;1.50;;;1.20;;
59974;SDS011;62136;-35.664;-63.766;2023-05-02T10:30:53;3.25;;;1.50;;
59974;SDS011;62136;-35.664;-63.766;2023-05-02T10:33:20;2.78;;;1.40;;
59974;SDS011;62136;-35.664;-63.766;2023-05-02T10:35:48;1.75;;;1.40;;
59974;SDS011;62136;-35.664;-63.766;2023-05-02T10:38:20;1.88;;;1.45;;
59974;SDS011;62136;-35.664;-63.766;2023-05-02T10:40:52;2.38;;;1.50;;
59974;SDS011;62136;-35.664;-63.766;2023-05-02T10:43:25;1.52;;;1.23;;
59974;SDS011;62136;-35.664;-63.766;2023-05-02T10:45:56;2.17;;;1.50;;
59974;SDS011;62136;-35.664;-63.766;2023-05-02T10:48:24;3.58;;;1.70;;
59974;SDS011;62136;-35.664;-63.766;2023-05-02T10:50:55;1.50;;;1.40;;
59974;SDS011;62136;-35.664;-63.766;2023-05-02T10:56:16;2.28;;;1.20;;
59974;SDS011;62136;-35.664;-63.766;2023-05-02T10:58:47;1.85;;;1.40;;
59974;SDS011;62136;-35.664;-63.766;2023-05-02T11:03:55;2.55;;;1.40;;
59974;SDS011;62136;-35.664;-63.766;2023-05-02T11:06:30;5.20;;;2.25;;
59974;SDS011;62136;-35.664;-63.766;2023-05-02T11:09:29;5.38;;;2.42;;
59974;SDS011;62136;-35.664;-63.766;2023-05-02T11:12:05;4.40;;;2.15;;
59974;SDS011;62136;-35.664;-63.766;2023-05-02T11:24:53;4.93;;;2.17;;
59974;SDS011;62136;-35.664;-63.766;2023-05-02T11:29:58;4.05;;;2.20;;
59974;SDS011;62136;-35.664;-63.766;2023-05-02T11:40:31;4.18;;;2.20;;
59974;SDS011;62136;-35.664;-63.766;2023-05-02T11:42:58;3.55;;;2.42;;
59974;SDS011;62136;-35.664;-63.766;2023-05-02T11:45:35;3.45;;;2.40;;
59974;SDS011;62136;-35.664;-63.766;2023-05-02T11:48:06;3.85;;;2.58;;
59974;SDS011;62136;-35.664;-63.766;2023-05-02T11:50:49;5.38;;;2.60;;
59974;SDS011;62136;-35.664;-63.766;2023-05-02T11:53:21;5.25;;;2.60;;
59974;SDS011;62136;-35.664;-63.766;2023-05-02T11:55:54;5.82;;;2.80;;
59974;SDS011;62136;-35.664;-63.766;2023-05-02T11:58:24;6.35;;;3.00;;
59974;SDS011;62136;-35.664;-63.766;2023-05-02T12:00:54;7.10;;;2.97;;
59974;SDS011;62136;-35.664;-63.766;2023-05-02T12:03:30;8.10;;;3.03;;
59974;SDS011;62136;-35.664;-63.766;2023-05-02T12:09:04;5.68;;;3.53;;
59974;SDS011;62136;-35.664;-63.766;2023-05-02T12:11:33;8.25;;;5.03;;
59974;SDS011;62136;-35.664;-63.766;2023-05-02T12:14:02;11.75;;;6.18;;
59974;SDS011;62136;-35.664;-63.766;2023-05-02T12:16:31;14.23;;;6.97;;
59974;SDS011;62136;-35.664;-63.766;2023-05-02T12:18:58;11.60;;;6.57;;
59974;SDS011;62136;-35.664;-63.766;2023-05-02T12:21:29;16.65;;;7.55;;
59974;SDS011;62136;-35.664;-63.766;2023-05-02T12:24:00;20.00;;;8.75;;
59974;SDS011;62136;-35.664;-63.766;2023-05-02T12:26:27;18.17;;;7.82;;
59974;SDS011;62136;-35.664;-63.766;2023-05-02T12:28:57;14.32;;;7.57;;
59974;SDS011;62136;-35.664;-63.766;2023-05-02T12:31:26;13.10;;;7.15;;
59974;SDS011;62136;-35.664;-63.766;2023-05-02T12:33:55;11.73;;;6.68;;
59974;SDS011;62136;-35.664;-63.766;2023-05-02T12:36:24;10.80;;;6.82;;
59974;SDS011;62136;-35.664;-63.766;2023-05-02T12:38:55;17.42;;;7.60;;
59974;SDS011;62136;-35.664;-63.766;2023-05-02T12:41:33;12.43;;;7.22;;
59974;SDS011;62136;-35.664;-63.766;2023-05-02T12:44:02;9.65;;;5.93;;
59974;SDS011;62136;-35.664;-63.766;2023-05-02T12:46:30;11.75;;;6.43;;
59974;SDS011;62136;-35.664;-63.766;2023-05-02T12:49:07;9.50;;;6.28;;
59974;SDS011;62136;-35.664;-63.766;2023-05-02T12:51:38;9.95;;;5.78;;
59974;SDS011;62136;-35.664;-63.766;2023-05-02T12:54:25;11.25;;;5.68;;
59974;SDS011;62136;-35.664;-63.766;2023-05-02T12:56:53;10.13;;;5.75;;
59974;SDS011;62136;-35.664;-63.766;2023-05-02T12:59:30;10.38;;;5.88;;
59974;SDS011;62136;-35.664;-63.766;2023-05-02T13:01:58;7.50;;;5.07;;
59974;SDS011;62136;-35.664;-63.766;2023-05-02T13:04:35;8.32;;;5.53;;
59974;SDS011;62136;-35.664;-63.766;2023-05-02T13:07:05;7.75;;;5.43;;
59974;SDS011;62136;-35.664;-63.766;2023-05-02T13:09:32;8.18;;;5.53;;
59974;SDS011;62136;-35.664;-63.766;2023-05-02T13:11:59;9.02;;;5.30;;
59974;SDS011;62136;-35.664;-63.766;2023-05-02T13:14:28;8.90;;;5.70;;
59974;SDS011;62136;-35.664;-63.766;2023-05-02T13:16:55;10.75;;;5.97;;
59974;SDS011;62136;-35.664;-63.766;2023-05-02T13:19:24;8.85;;;5.15;;
59974;SDS011;62136;-35.664;-63.766;2023-05-02T13:21:55;9.07;;;4.90;;
59974;SDS011;62136;-35.664;-63.766;2023-05-02T13:24:22;10.80;;;5.30;;
59974;SDS011;62136;-35.664;-63.766;2023-05-02T13:26:49;8.43;;;4.82;;
59974;SDS011;62136;-35.664;-63.766;2023-05-02T13:29:18;7.80;;;4.65;;
59974;SDS011;62136;-35.664;-63.766;2023-05-02T13:31:46;6.32;;;4.57;;
59974;SDS011;62136;-35.664;-63.766;2023-05-02T13:34:17;9.75;;;4.82;;
59974;SDS011;62136;-35.664;-63.766;2023-05-02T13:36:44;5.55;;;3.78;;
59974;SDS011;62136;-35.664;-63.766;2023-05-02T13:39:13;8.98;;;4.78;;
59974;SDS011;62136;-35.664;-63.766;2023-05-02T13:41:40;6.35;;;4.25;;
59974;SDS011;62136;-35.664;-63.766;2023-05-02T13:44:07;8.23;;;4.32;;
59974;SDS011;62136;-35.664;-63.766;2023-05-02T13:46:34;9.05;;;4.60;;
59974;SDS011;62136;-35.664;-63.766;2023-05-02T13:49:02;8.98;;;4.05;;
59974;SDS011;62136;-35.664;-63.766;2023-05-02T13:51:33;8.00;;;4.15;;
59974;SDS011;62136;-35.664;-63.766;2023-05-02T13:54:00;7.90;;;4.63;;
59974;SDS011;62136;-35.664;-63.766;2023-05-02T13:56:27;7.95;;;4.50;;
59974;SDS011;62136;-35.664;-63.766;2023-05-02T13:58:55;7.07;;;4.05;;
59974;SDS011;62136;-35.664;-63.766;2023-05-02T14:01:22;7.35;;;4.13;;
59974;SDS011;62136;-35.664;-63.766;2023-05-02T14:03:53;5.35;;;3.75;;
59974;SDS011;62136;-35.664;-63.766;2023-05-02T14:06:20;5.38;;;4.07;;
59974;SDS011;62136;-35.664;-63.766;2023-05-02T14:08:50;7.93;;;4.75;;
59974;SDS011;62136;-35.664;-63.766;2023-05-02T14:11:17;5.97;;;4.63;;
59974;SDS011;62136;-35.664;-63.766;2023-05-02T14:13:44;6.75;;;4.63;;
59974;SDS011;62136;-35.664;-63.766;2023-05-02T14:16:19;6.82;;;4.97;;
59974;SDS011;62136;-35.664;-63.766;2023-05-02T14:18:47;10.77;;;6.10;;
59974;SDS011;62136;-35.664;-63.766;2023-05-02T14:21:18;10.68;;;5.95;;
59974;SDS011;62136;-35.664;-63.766;2023-05-02T14:23:47;9.23;;;6.35;;
59974;SDS011;62136;-35.664;-63.766;2023-05-02T14:26:16;7.70;;;6.80;;
59974;SDS011;62136;-35.664;-63.766;2023-05-02T14:28:46;9.50;;;6.28;;
59974;SDS011;62136;-35.664;-63.766;2023-05-02T14:31:13;8.00;;;6.30;;
59974;SDS011;62136;-35.664;-63.766;2023-05-02T14:33:40;6.90;;;5.20;;
59974;SDS011;62136;-35.664;-63.766;2023-05-02T14:36:07;7.57;;;4.70;;
59974;SDS011;62136;-35.664;-63.766;2023-05-02T14:38:34;5.85;;;4.85;;
59974;SDS011;62136;-35.664;-63.766;2023-05-02T14:41:01;7.60;;;4.13;;
59974;SDS011;62136;-35.664;-63.766;2023-05-02T14:43:28;6.82;;;4.82;;
59974;SDS011;62136;-35.664;-63.766;2023-05-02T14:45:56;7.45;;;3.75;;
59974;SDS011;62136;-35.664;-63.766;2023-05-02T14:48:23;5.68;;;3.50;;
59974;SDS011;62136;-35.664;-63.766;2023-05-02T14:50:50;7.25;;;3.70;;
59974;SDS011;62136;-35.664;-63.766;2023-05-02T14:53:19;6.20;;;3.80;;
59974;SDS011;62136;-35.664;-63.766;2023-05-02T14:55:46;7.25;;;3.92;;
59974;SDS011;62136;-35.664;-63.766;2023-05-02T14:58:16;8.05;;;4.00;;
59974;SDS011;62136;-35.664;-63.766;2023-05-02T15:00:45;4.22;;;3.50;;
59974;SDS011;62136;-35.664;-63.766;2023-05-02T15:03:12;8.63;;;3.95;;
59974;SDS011;62136;-35.664;-63.766;2023-05-02T15:05:40;5.38;;;3.45;;
59974;SDS011;62136;-35.664;-63.766;2023-05-02T15:08:07;7.38;;;3.80;;
59974;SDS011;62136;-35.664;-63.766;2023-05-02T15:10:37;6.65;;;3.80;;
59974;SDS011;62136;-35.664;-63.766;2023-05-02T15:13:05;3.75;;;3.30;;
59974;SDS011;62136;-35.664;-63.766;2023-05-02T15:15:33;9.00;;;4.28;;
59974;SDS011;62136;-35.664;-63.766;2023-05-02T15:18:00;5.78;;;3.60;;
59974;SDS011;62136;-35.664;-63.766;2023-05-02T15:20:27;8.23;;;3.95;;